Terminal Aerodrome Forecast
Issued by NWS Albuquerque, NM

Home | Current Version | Previous Version | Text Only | Print | Product List | Glossary On
Versions: 1 2 3 4 5 6 7 8 9 10 11 12 13 14
000
FTUS45 KABQ 020828 AAA
TAFABQ
TAF AMD
KABQ 020828Z 0208/0306 10015KT P6SM BKN120
     FM021900 VRB06KT P6SM FEW100
     FM030000 27008KT P6SM VCTS SCT100CB SCT150
     FM030200 31007KT P6SM VCSH BKN100=

USA.gov is the U.S. government's official web portal to all federal, state and local government web resources and services.